Latest Weather Observations for Sunshine Coast Airport

IDQ60801

Issued at 4:42 am EST Monday 19 November 2018 (issued every 10 minutes, with the page automatically refreshed every 10 minutes)

About weather observations | Map of weather stations | Latest weather observations for QLD | Other Formats
Station Details ID: 040861 Name: SUNSHINE COAST AIRPORT Lat: -26.60 Lon: 153.09 Height: 3.42 m
Data from the previous 72 hours. | See also: Recent months at Sunshine Coast Airport
Date/Time
EST
Temp
°C
App
Temp
°C
Dew
Point
°C
Rel
Hum
%
Delta-T
°C
Wind Press
QNH
hPa
Press
MSL
hPa
Rain since
9am
mm
Dir  Spd
km/h
Gust
km/h
Spd
kts
Gust
kts
19/04:30am 21.8 18.7 13.4 59 4.8 SE 22 28 12 15 1017.6 1017.5 0.8
19/04:00am 21.6 18.8 13.2 59 4.8 SE 20 30 11 16 1017.5 1017.4 0.8
19/03:30am 21.7 17.4 12.0 54 5.4 SE 26 35 14 19 1017.4 1017.3 0.8
19/03:00am 22.0 17.8 12.5 54 5.4 SE 26 35 14 19 1017.1 1017.0 0.8
19/02:30am 22.1 18.0 13.7 59 4.9 SE 28 41 15 22 1017.4 1017.3 0.8
19/02:00am 22.0 19.5 14.1 61 4.6 ESE 20 30 11 16 1017.3 1017.2 0.8
19/01:30am 22.0 19.3 13.6 59 4.9 SE 20 28 11 15 1017.4 1017.3 0.8
19/01:00am 22.0 19.2 14.4 62 4.4 ESE 22 28 12 15 1018.0 1017.9 0.8
19/12:30am 21.9 18.5 13.8 60 4.7 ESE 24 30 13 16 1018.4 1018.3 0.8
19/12:00am 22.1 18.7 13.7 59 4.9 SE 24 32 13 17 1019.0 1018.9 0.8
 
Date/Time
EST
Temp
°C
App
Temp
°C
Dew
Point
°C
Rel
Hum
%
Delta-T
°C
Wind Press
QNH
hPa
Press
MSL
hPa
Rain since
9am
mm
Dir  Spd
km/h
Gust
km/h
Spd
kts
Gust
kts
18/11:30pm 22.0 18.0 14.1 61 4.6 SE 28 37 15 20 1019.2 1019.1 0.8
18/11:00pm 22.3 18.0 14.4 61 4.6 SE 30 39 16 21 1019.2 1019.1 0.8
18/10:30pm 22.5 18.6 15.4 64 4.2 ESE 30 41 16 22 1019.2 1019.1 0.8
18/10:00pm 22.6 19.1 15.4 64 4.3 ESE 28 41 15 22 1018.8 1018.7 0.8
18/09:30pm 22.8 19.1 16.1 66 4.1 ESE 30 44 16 24 1018.7 1018.6 0.8
18/09:00pm 22.7 19.7 16.7 69 3.7 ESE 28 39 15 21 1018.5 1018.4 0.8
18/08:30pm 21.3 19.1 16.9 76 2.7 ESE 24 37 13 20 1018.8 1018.7 0.8
18/08:00pm 22.9 20.2 15.7 64 4.3 ESE 24 35 13 19 1018.2 1018.1 0.6
18/07:30pm 22.9 19.5 15.7 64 4.3 ESE 28 37 15 20 1018.0 1017.9 0.6
18/07:00pm 22.9 19.4 15.5 63 4.4 ESE 28 37 15 20 1017.9 1017.8 0.6
18/06:30pm 23.0 19.6 15.8 64 4.3 ESE 28 37 15 20 1017.5 1017.4 0.6
18/06:00pm 23.0 19.5 15.6 63 4.4 SE 28 39 15 21 1017.4 1017.3 0.6
18/05:30pm 23.1 19.6 15.4 62 4.6 SE 28 39 15 21 1017.4 1017.3 0.6
18/05:00pm 23.3 19.4 15.6 62 4.6 SE 30 41 16 22 1016.7 1016.6 0.6
18/04:30pm 23.7 20.2 16.5 64 4.4 SE 30 39 16 21 1016.8 1016.7 0.6
18/04:00pm 23.6 20.4 16.4 64 4.4 SE 28 39 15 21 1016.7 1016.6 0.6
18/03:30pm 23.6 20.3 17.1 67 4.0 SE 30 39 16 21 1017.0 1016.9 0.6
18/03:00pm 24.2 20.4 16.7 63 4.6 SE 32 43 17 23 1016.9 1016.8 0.6
18/02:30pm 24.3 21.3 17.8 67 4.1 SE 30 39 16 21 1017.0 1016.9 0.6
18/02:16pm 24.4 20.9 17.4 65 4.4 SE 32 44 17 24 1016.9 1016.8 0.6
18/02:00pm 24.7 22.0 18.4 68 4.0 SE 30 41 16 22 1017.1 1017.0 0.6
18/01:57pm 24.9 22.7 18.8 69 3.9 SE 28 41 15 22 1017.1 1017.0 0.6
18/01:30pm 24.5 21.3 18.2 68 4.0 SE 32 44 17 24 1017.3 1017.2 0.6
18/01:00pm 24.7 22.1 19.8 74 3.2 SE 33 46 18 25 1017.4 1017.3 0.6
18/12:30pm 24.1 21.5 19.6 76 2.9 SE 32 44 17 24 1017.7 1017.6 0.6
18/12:00pm 22.5 20.9 19.3 82 2.0 SE 26 39 14 21 1017.9 1017.8 0.6
18/11:30am 21.7 18.8 19.3 86 1.5 SE 33 46 18 25 1018.1 1018.0 0.4
18/11:21am 21.0 16.6 18.4 85 1.6 SE 39 50 21 27 1018.1 1018.0 0.2
18/11:20am 21.1 17.0 18.3 84 1.7 SE 37 50 20 27 1018.1 1018.0 0.2
18/11:13am 24.6 22.4 18.8 70 3.7 SE 28 46 15 25 1017.8 1017.7 0.0
18/11:01am 24.3 22.8 19.4 74 3.1 SSE 26 33 14 18 1017.8 1017.7 0.0
18/11:00am 24.1 22.6 19.4 75 3.0 SSE 26 33 14 18 1017.8 1017.7 0.0
18/10:38am 24.0 21.1 18.9 73 3.2 SSE 32 43 17 23 1017.8 1017.7 0.0
18/10:30am 25.0 22.8 19.6 72 3.5 SSE 30 41 16 22 1017.7 1017.6 0.0
18/10:00am 24.6 22.3 19.4 73 3.3 SE 30 41 16 22 1017.9 1017.8 0.0
18/09:58am 24.6 22.2 19.2 72 3.5 SE 30 41 16 22 1017.9 1017.8 0.0
18/09:30am 23.3 21.8 19.5 79 2.4 SSE 26 35 14 19 1018.0 1017.9 0.0
18/09:00am 24.2 22.6 19.1 73 3.2 SSE 26 39 14 21 1017.9 1017.8 23.0
18/08:45am 24.7 22.6 18.9 70 3.7 SSE 28 35 15 19 1017.6 1017.5 23.0
18/08:30am 23.2 22.5 19.4 79 2.4 S 22 32 12 17 1017.7 1017.6 23.0
18/08:10am 23.0 21.9 19.4 80 2.3 S 24 35 13 19 1017.5 1017.4 23.0
18/08:00am 22.8 21.7 19.4 81 2.2 S 24 32 13 17 1017.3 1017.2 23.0
18/07:30am 22.0 21.7 19.2 84 1.8 S 19 28 10 15 1017.1 1017.0 23.0
18/07:00am 21.1 20.3 18.5 85 1.6 SSW 20 28 11 15 1016.9 1016.8 23.0
18/06:30am 20.4 19.7 18.2 87 1.4 SSW 19 26 10 14 1016.5 1016.4 23.0
18/06:00am 20.2 19.6 18.5 90 1.1 SSW 19 24 10 13 1016.4 1016.3 23.0
18/05:30am 20.1 19.9 18.6 91 0.9 SW 17 22 9 12 1016.0 1015.9 23.0
18/05:00am 19.8 20.1 18.8 94 0.6 SW 15 19 8 10 1015.7 1015.6 23.0
18/04:30am 19.7 19.6 18.7 94 0.6 SSW 17 24 9 13 1015.2 1015.1 22.8
18/04:00am 19.9 19.7 18.6 92 0.8 SSW 17 24 9 13 1014.8 1014.8 22.6
18/03:30am 19.6 18.9 18.3 92 0.8 SSW 19 24 10 13 1014.7 1014.7 22.6
18/03:00am 19.9 19.4 18.7 93 0.7 SSW 19 26 10 14 1014.6 1014.6 22.6
18/02:30am 19.3 20.0 18.8 97 0.3 SSW 13 20 7 11 1014.6 1014.6 22.6
18/02:00am 18.9 20.2 18.4 97 0.3 SW 9 13 5 7 1014.6 1014.6 22.6
18/01:30am 18.7 19.9 18.2 97 0.3 WNW 9 11 5 6 1014.6 1014.6 22.6
18/01:00am 18.8 19.7 18.3 97 0.3 WNW 11 17 6 9 1014.6 1014.6 22.6
18/12:30am 19.1 19.3 18.6 97 0.3 WSW 15 19 8 10 1014.8 1014.8 22.6
18/12:00am 19.5 21.3 18.8 96 0.4 W 7 13 4 7 1015.3 1015.2 22.6
 
Date/Time
EST
Temp
°C
App
Temp
°C
Dew
Point
°C
Rel
Hum
%
Delta-T
°C
Wind Press
QNH
hPa
Press
MSL
hPa
Rain since
9am
mm
Dir  Spd
km/h
Gust
km/h
Spd
kts
Gust
kts
17/11:36pm 19.2 21.7 18.2 94 0.6 WNW 2 7 1 4 1015.7 1015.6 22.6
17/11:30pm 19.2 21.3 18.2 94 0.6 WSW 4 7 2 4 1015.7 1015.6 22.6
17/11:00pm 19.4 20.9 18.1 92 0.8 W 7 9 4 5 1016.2 1016.1 22.6
17/10:53pm 19.5 20.9 17.8 90 1.0 W 7 11 4 6 1016.3 1016.2 22.6
17/10:46pm 20.0 21.5 18.0 88 1.2 NW 7 13 4 7 1016.2 1016.1 22.6
17/10:30pm 21.1 21.9 19.9 93 0.8 ESE 15 19 8 10 1016.2 1016.1 22.6
17/10:20pm 20.9 23.0 20.1 95 0.5 SSE 9 22 5 12 1016.2 1016.1 22.6
17/10:00pm 19.4 20.5 18.1 92 0.8 SSW 9 13 5 7 1016.6 1016.5 22.6
17/09:30pm 19.2 19.5 18.0 93 0.7 SSE 13 17 7 9 1017.0 1016.9 22.6
17/09:00pm 18.6 17.1 17.8 95 0.5 SSW 22 33 12 18 1015.9 1015.8 22.6
17/08:30pm 18.0 18.1 17.5 97 0.3 W 13 17 7 9 1014.6 1014.6 22.6
17/08:00pm 18.5 17.5 18.0 97 0.3 NW 20 28 11 15 1013.7 1013.7 22.6
17/07:30pm 18.7 18.0 18.2 97 0.3 N 19 24 10 13 1014.0 1014.0 22.6
17/07:00pm 18.2 18.8 17.7 97 0.3 W 11 19 6 10 1015.4 1015.3 20.4
17/06:30pm 17.9 18.3 17.3 96 0.4 NNW 11 17 6 9 1014.5 1014.5 18.4
17/06:02pm 18.0 15.6 16.5 91 0.9 WSW 24 61 13 33 1015.0 1014.9 13.0
17/06:00pm 18.1 14.2 16.4 90 1.0 SW 32 61 17 33 1014.7 1014.7 11.8
17/05:51pm 19.3 13.5 17.3 88 1.2 SW 44 65 24 35 1014.5 1014.5 2.2
17/05:48pm 19.2 15.0 16.1 82 1.8 SW 33 65 18 35 1014.2 1014.2 0.6
17/05:43pm 21.8 21.2 16.7 73 3.1 ENE 15 46 8 25 1014.3 1014.3 0.2
17/05:30pm 23.6 24.1 20.1 81 2.3 ENE 17 26 9 14 1013.3 1013.3 0.0
17/05:00pm 24.5 23.6 19.8 75 3.0 NE 24 30 13 16 1011.6 1011.6 0.0
17/04:30pm 24.7 23.0 18.9 70 3.7 NE 26 32 14 17 1011.4 1011.4 0.0
17/04:00pm 26.3 24.2 18.9 63 4.7 NE 28 35 15 19 1011.1 1011.1 0.0
17/03:30pm 25.2 23.0 18.6 67 4.2 NE 28 35 15 19 1011.1 1011.1 0.0
17/03:00pm 26.9 25.3 19.3 63 4.9 NE 26 33 14 18 1011.8 1011.8 0.0
17/02:30pm 26.8 25.3 19.4 64 4.8 NE 26 32 14 17 1012.3 1012.3 0.0
17/02:00pm 27.0 25.7 19.9 65 4.6 NE 26 32 14 17 1012.7 1012.7 0.0
17/01:30pm 27.3 25.7 19.1 61 5.3 NE 26 33 14 18 1012.7 1012.7 0.0
17/01:00pm 27.3 25.9 19.6 62 5.0 NE 26 32 14 17 1013.4 1013.4 0.0
17/12:30pm 27.6 27.0 19.7 62 5.1 NE 22 26 12 14 1014.1 1014.1 0.0
17/12:00pm 27.4 26.3 18.7 59 5.6 NE 22 26 12 14 1014.4 1014.4 0.0
17/11:30am 27.1 26.3 18.4 59 5.5 NE 20 28 11 15 1014.7 1014.7 0.0
17/11:00am 26.8 25.7 18.6 60 5.2 NE 22 26 12 14 1015.2 1015.1 0.0
17/10:30am 26.9 26.4 19.0 62 5.1 NE 20 24 11 13 1015.7 1015.6 0.0
17/10:00am 26.8 26.8 18.9 62 5.1 NE 17 24 9 13 1015.9 1015.8 0.0
17/09:30am 26.6 26.6 19.0 63 4.9 NE 17 20 9 11 1016.0 1015.9 0.0
17/09:00am 26.3 26.7 18.9 63 4.7 ENE 15 19 8 10 1016.0 1015.9 0.0
17/08:30am 25.9 26.4 18.3 63 4.8 ENE 13 17 7 9 1015.8 1015.7 0.0
17/08:00am 24.4 26.0 18.3 69 3.8 NNW 7 9 4 5 1015.9 1015.8 0.0
17/07:30am 24.6 26.3 18.5 69 3.9 WNW 7 11 4 6 1015.9 1015.8 0.0
17/07:00am 23.6 25.7 18.9 75 3.0 WNW 6 9 3 5 1015.8 1015.7 0.0
17/06:30am 21.9 23.9 19.1 84 1.8 W 7 9 4 5 1015.6 1015.5 0.0
17/06:00am 19.6 21.3 18.4 93 0.7 WSW 7 9 4 5 1015.4 1015.3 0.0
17/05:30am 18.7 20.3 18.2 97 0.3 WNW 7 9 4 5 1014.8 1014.8 0.0
17/05:00am 17.9 19.1 17.3 96 0.4 W 7 9 4 5 1014.5 1014.5 0.0
17/04:30am 18.1 19.6 17.5 96 0.4 W 6 7 3 4 1014.3 1014.3 0.0
17/04:00am 18.3 19.6 17.5 95 0.5 W 7 9 4 5 1014.1 1014.1 0.0
17/03:30am 18.4 19.8 17.4 94 0.6 W 6 7 3 4 1014.0 1014.0 0.0
17/03:00am 19.1 21.1 17.8 92 0.8 WSW 4 6 2 3 1014.0 1014.0 0.0
17/02:30am 19.4 21.2 18.2 93 0.7 W 6 7 3 4 1014.3 1014.3 0.0
17/02:00am 19.3 20.9 17.8 91 0.9 W 6 7 3 4 1014.3 1014.3 0.0
17/01:30am 19.5 21.0 18.0 91 0.9 W 7 7 4 4 1014.6 1014.6 0.0
17/01:00am 19.7 21.3 18.2 91 0.9 WSW 7 9 4 5 1014.8 1014.8 0.0
17/12:30am 19.5 20.8 17.6 89 1.2 W 7 9 4 5 1015.2 1015.1 0.0
17/12:00am 20.1 21.1 17.7 86 1.5 WSW 9 13 5 7 1015.7 1015.6 0.0
 
Date/Time
EST
Temp
°C
App
Temp
°C
Dew
Point
°C
Rel
Hum
%
Delta-T
°C
Wind Press
QNH
hPa
Press
MSL
hPa
Rain since
9am
mm
Dir  Spd
km/h
Gust
km/h
Spd
kts
Gust
kts
16/11:30pm 21.2 22.4 17.4 79 2.3 WSW 7 9 4 5 1015.8 1015.7 0.0
16/11:00pm 22.7 23.0 17.8 74 3.0 NE 13 15 7 8 1015.7 1015.6 0.0
16/10:30pm 22.7 23.0 17.8 74 3.0 NE 13 17 7 9 1015.9 1015.8 0.0
16/10:00pm 22.7 22.5 17.6 73 3.2 NE 15 20 8 11 1015.8 1015.7 0.0
16/09:30pm 22.7 22.1 17.6 73 3.2 NE 17 19 9 10 1015.8 1015.7 0.0
16/09:00pm 22.9 22.4 17.8 73 3.2 NE 17 20 9 11 1015.7 1015.6 0.0
16/08:30pm 22.9 21.8 17.8 73 3.2 NE 20 24 11 13 1015.3 1015.2 0.0
16/08:00pm 22.9 21.9 17.6 72 3.3 NNE 19 22 10 12 1015.1 1015.0 0.0
16/07:30pm 22.9 22.6 17.4 71 3.4 NNE 15 24 8 13 1015.0 1014.9 0.0
16/07:00pm 23.1 22.4 17.3 70 3.6 NNE 17 22 9 12 1014.6 1014.6 0.0
16/06:30pm 23.2 22.1 17.2 69 3.7 NE 19 22 10 12 1014.5 1014.5 0.0
16/06:00pm 23.5 22.1 17.0 67 4.0 NNE 20 26 11 14 1014.2 1014.2 0.0
16/05:30pm 24.2 23.0 17.0 64 4.4 NE 19 22 10 12 1014.2 1014.2 0.0
16/05:00pm 24.9 23.5 16.9 61 4.9 NE 20 24 11 13 1014.0 1014.0 0.0
16/04:30pm 25.4 24.2 17.1 60 5.2 NE 19 24 10 13 1013.8 1013.8 0.0
16/04:00pm 26.0 24.8 17.4 59 5.4 ENE 20 24 11 13 1013.7 1013.7 0.0
16/03:30pm 26.0 24.3 17.1 58 5.5 NE 22 28 12 15 1013.6 1013.6 0.0
16/03:00pm 26.5 25.3 17.6 58 5.6 ENE 20 24 11 13 1013.9 1013.9 0.0
16/02:30pm 26.5 25.3 17.6 58 5.6 ENE 20 26 11 14 1014.3 1014.3 0.0
16/02:00pm 26.1 24.3 16.9 57 5.7 ENE 22 24 12 13 1014.5 1014.5 0.0
16/01:30pm 26.6 25.4 17.1 56 5.9 ENE 19 24 10 13 1015.0 1014.9 0.0
16/01:00pm 26.8 26.0 17.0 55 6.1 ENE 17 22 9 12 1015.5 1015.4 0.0
16/12:30pm 26.7 25.6 17.2 56 5.9 ENE 19 22 10 12 1015.8 1015.7 0.0
16/12:00pm 26.6 25.7 16.8 55 6.1 ENE 17 22 9 12 1016.2 1016.1 0.0
16/11:30am 27.1 26.7 18.1 58 5.7 ENE 17 20 9 11 1016.6 1016.5 0.0
16/11:00am 26.5 25.9 17.6 58 5.6 E 17 20 9 11 1016.9 1016.8 0.0
16/10:30am 26.0 25.2 17.1 58 5.5 ENE 17 20 9 11 1017.3 1017.2 0.0
16/10:00am 25.8 25.1 17.4 59 5.2 E 17 20 9 11 1017.6 1017.5 0.0
16/09:30am 25.8 26.1 18.0 62 4.9 ENE 13 17 7 9 1017.7 1017.6 0.0
16/09:00am 25.5 26.3 18.2 64 4.6 ENE 11 17 6 9 1017.6 1017.5 0.0
16/08:30am 25.5 26.1 17.7 62 4.9 ENE 11 13 6 7 1017.5 1017.4 0.0
16/08:00am 25.5 26.5 17.7 62 4.9 E 9 11 5 6 1017.7 1017.6 0.0
16/07:30am 24.7 26.9 18.4 68 4.0 ENE 4 11 2 6 1017.7 1017.6 0.0
16/07:00am 21.8 24.2 19.7 88 1.3 WSW 6 7 3 4 1017.5 1017.4 0.0
16/06:30am 20.4 22.0 19.2 93 0.8 WSW 9 11 5 6 1017.4 1017.3 0.0
16/06:00am 19.1 21.1 18.8 98 0.2 WNW 6 7 3 4 1017.1 1017.0 0.0
16/05:30am 18.2 19.8 17.9 98 0.2 WNW 6 6 3 3 1016.9 1016.8 0.0
16/05:00am 17.5 18.8 17.0 97 0.3 WNW 6 6 3 3 1016.7 1016.6 0.0

Other Formats:

Comma delimited format used in spreadsheet applications
http://www.bom.gov.au/fwo/IDQ60801/IDQ60801.94569.axf

JavaScript Object Notation format (JSON) in row-major order
http://www.bom.gov.au/fwo/IDQ60801/IDQ60801.94569.json